sensor_id;sensor_type;location;lat;lon;timestamp;P1;durP1;ratioP1;P2;durP2;ratioP2
39898;SDS011;25571;47.876;10.642;2023-02-24T00:02:13;5.22;;;3.30;;
39898;SDS011;25571;47.876;10.642;2023-02-24T00:04:39;5.07;;;3.60;;
39898;SDS011;25571;47.876;10.642;2023-02-24T00:07:14;5.13;;;2.90;;
39898;SDS011;25571;47.876;10.642;2023-02-24T00:09:40;6.20;;;3.30;;
39898;SDS011;25571;47.876;10.642;2023-02-24T00:12:12;3.80;;;2.70;;
39898;SDS011;25571;47.876;10.642;2023-02-24T00:14:40;8.88;;;3.88;;
39898;SDS011;25571;47.876;10.642;2023-02-24T00:19:35;5.32;;;3.30;;
39898;SDS011;25571;47.876;10.642;2023-02-24T00:22:02;8.00;;;3.65;;
39898;SDS011;25571;47.876;10.642;2023-02-24T00:24:29;7.22;;;3.35;;
39898;SDS011;25571;47.876;10.642;2023-02-24T00:26:56;6.15;;;3.88;;
39898;SDS011;25571;47.876;10.642;2023-02-24T00:29:23;6.57;;;3.65;;
39898;SDS011;25571;47.876;10.642;2023-02-24T00:31:50;5.43;;;3.40;;
39898;SDS011;25571;47.876;10.642;2023-02-24T00:34:31;6.78;;;3.97;;
39898;SDS011;25571;47.876;10.642;2023-02-24T00:36:59;5.40;;;3.58;;
39898;SDS011;25571;47.876;10.642;2023-02-24T00:39:26;6.00;;;3.80;;
39898;SDS011;25571;47.876;10.642;2023-02-24T00:41:57;6.18;;;3.70;;
39898;SDS011;25571;47.876;10.642;2023-02-24T00:44:38;5.95;;;4.25;;
39898;SDS011;25571;47.876;10.642;2023-02-24T00:47:07;5.60;;;3.50;;
39898;SDS011;25571;47.876;10.642;2023-02-24T00:49:34;6.38;;;3.42;;
39898;SDS011;25571;47.876;10.642;2023-02-24T00:52:06;5.43;;;3.60;;
39898;SDS011;25571;47.876;10.642;2023-02-24T00:54:40;6.15;;;3.97;;
39898;SDS011;25571;47.876;10.642;2023-02-24T00:57:06;6.00;;;3.75;;
39898;SDS011;25571;47.876;10.642;2023-02-24T00:59:35;6.22;;;2.92;;
39898;SDS011;25571;47.876;10.642;2023-02-24T01:02:01;7.75;;;3.08;;
39898;SDS011;25571;47.876;10.642;2023-02-24T01:04:27;6.80;;;3.25;;
39898;SDS011;25571;47.876;10.642;2023-02-24T01:06:54;5.15;;;3.22;;
39898;SDS011;25571;47.876;10.642;2023-02-24T01:09:24;3.13;;;2.70;;
39898;SDS011;25571;47.876;10.642;2023-02-24T01:11:51;5.53;;;3.17;;
39898;SDS011;25571;47.876;10.642;2023-02-24T01:14:36;6.22;;;3.63;;
39898;SDS011;25571;47.876;10.642;2023-02-24T01:17:04;6.43;;;2.92;;
39898;SDS011;25571;47.876;10.642;2023-02-24T01:19:31;4.93;;;2.97;;
39898;SDS011;25571;47.876;10.642;2023-02-24T01:21:58;4.57;;;3.25;;
39898;SDS011;25571;47.876;10.642;2023-02-24T01:24:25;4.00;;;2.83;;
39898;SDS011;25571;47.876;10.642;2023-02-24T01:26:52;5.30;;;2.95;;
39898;SDS011;25571;47.876;10.642;2023-02-24T01:29:18;6.00;;;2.90;;
39898;SDS011;25571;47.876;10.642;2023-02-24T01:31:46;5.70;;;2.90;;
39898;SDS011;25571;47.876;10.642;2023-02-24T01:34:14;3.42;;;2.40;;
39898;SDS011;25571;47.876;10.642;2023-02-24T01:36:41;5.10;;;2.78;;
39898;SDS011;25571;47.876;10.642;2023-02-24T01:39:10;4.82;;;2.92;;
39898;SDS011;25571;47.876;10.642;2023-02-24T01:41:38;4.75;;;2.58;;
39898;SDS011;25571;47.876;10.642;2023-02-24T01:46:51;3.58;;;2.42;;
39898;SDS011;25571;47.876;10.642;2023-02-24T01:52:05;5.00;;;2.67;;
39898;SDS011;25571;47.876;10.642;2023-02-24T01:54:49;4.75;;;2.60;;
39898;SDS011;25571;47.876;10.642;2023-02-24T01:57:19;5.32;;;2.47;;
39898;SDS011;25571;47.876;10.642;2023-02-24T01:59:47;3.50;;;2.55;;
39898;SDS011;25571;47.876;10.642;2023-02-24T02:02:16;3.80;;;2.17;;
39898;SDS011;25571;47.876;10.642;2023-02-24T02:05:00;3.75;;;2.40;;
39898;SDS011;25571;47.876;10.642;2023-02-24T02:07:30;3.53;;;2.55;;
39898;SDS011;25571;47.876;10.642;2023-02-24T02:09:56;3.65;;;2.50;;
39898;SDS011;25571;47.876;10.642;2023-02-24T02:12:24;3.58;;;2.13;;
39898;SDS011;25571;47.876;10.642;2023-02-24T02:14:52;4.47;;;2.50;;
39898;SDS011;25571;47.876;10.642;2023-02-24T02:22:54;4.03;;;2.25;;
39898;SDS011;25571;47.876;10.642;2023-02-24T02:26:07;3.45;;;2.40;;
39898;SDS011;25571;47.876;10.642;2023-02-24T02:31:55;4.32;;;3.38;;
39898;SDS011;25571;47.876;10.642;2023-02-24T02:42:44;5.13;;;2.60;;
39898;SDS011;25571;47.876;10.642;2023-02-24T02:45:26;4.40;;;2.38;;
39898;SDS011;25571;47.876;10.642;2023-02-24T02:47:53;4.05;;;2.35;;
39898;SDS011;25571;47.876;10.642;2023-02-24T02:50:38;5.20;;;2.22;;
39898;SDS011;25571;47.876;10.642;2023-02-24T02:53:12;3.33;;;2.22;;
39898;SDS011;25571;47.876;10.642;2023-02-24T02:56:02;5.43;;;2.72;;
39898;SDS011;25571;47.876;10.642;2023-02-24T02:58:36;6.57;;;2.00;;
39898;SDS011;25571;47.876;10.642;2023-02-24T03:01:06;3.47;;;2.33;;
39898;SDS011;25571;47.876;10.642;2023-02-24T03:03:38;4.40;;;2.58;;
39898;SDS011;25571;47.876;10.642;2023-02-24T03:06:10;4.47;;;2.40;;
39898;SDS011;25571;47.876;10.642;2023-02-24T03:11:06;5.63;;;2.70;;
39898;SDS011;25571;47.876;10.642;2023-02-24T03:13:38;3.28;;;1.98;;
39898;SDS011;25571;47.876;10.642;2023-02-24T03:16:07;3.97;;;2.42;;
39898;SDS011;25571;47.876;10.642;2023-02-24T03:18:37;5.30;;;2.50;;
39898;SDS011;25571;47.876;10.642;2023-02-24T03:21:16;5.07;;;2.72;;
39898;SDS011;25571;47.876;10.642;2023-02-24T03:23:49;5.68;;;2.10;;
39898;SDS011;25571;47.876;10.642;2023-02-24T03:26:24;5.43;;;2.00;;
39898;SDS011;25571;47.876;10.642;2023-02-24T03:29:12;4.07;;;2.42;;
39898;SDS011;25571;47.876;10.642;2023-02-24T03:37:22;3.85;;;2.78;;
39898;SDS011;25571;47.876;10.642;2023-02-24T03:39:55;3.65;;;2.17;;
39898;SDS011;25571;47.876;10.642;2023-02-24T03:42:22;3.38;;;2.30;;
39898;SDS011;25571;47.876;10.642;2023-02-24T03:44:53;6.15;;;2.25;;
39898;SDS011;25571;47.876;10.642;2023-02-24T03:47:22;4.72;;;2.33;;
39898;SDS011;25571;47.876;10.642;2023-02-24T03:49:48;4.22;;;2.20;;
39898;SDS011;25571;47.876;10.642;2023-02-24T04:03:46;4.75;;;2.45;;
39898;SDS011;25571;47.876;10.642;2023-02-24T04:12:13;4.47;;;2.30;;
39898;SDS011;25571;47.876;10.642;2023-02-24T04:14:46;6.22;;;2.72;;
39898;SDS011;25571;47.876;10.642;2023-02-24T04:19:47;4.90;;;2.40;;
39898;SDS011;25571;47.876;10.642;2023-02-24T04:22:17;9.02;;;2.67;;
39898;SDS011;25571;47.876;10.642;2023-02-24T04:24:49;5.68;;;2.95;;
39898;SDS011;25571;47.876;10.642;2023-02-24T04:27:17;4.95;;;2.53;;
39898;SDS011;25571;47.876;10.642;2023-02-24T04:29:45;4.65;;;2.42;;
39898;SDS011;25571;47.876;10.642;2023-02-24T04:32:25;4.05;;;1.88;;
39898;SDS011;25571;47.876;10.642;2023-02-24T04:34:59;5.47;;;2.75;;
39898;SDS011;25571;47.876;10.642;2023-02-24T04:37:26;5.57;;;2.45;;
39898;SDS011;25571;47.876;10.642;2023-02-24T04:39:57;5.88;;;2.97;;
39898;SDS011;25571;47.876;10.642;2023-02-24T04:42:24;5.88;;;3.17;;
39898;SDS011;25571;47.876;10.642;2023-02-24T04:44:49;5.38;;;2.28;;
39898;SDS011;25571;47.876;10.642;2023-02-24T04:47:17;4.10;;;2.63;;
39898;SDS011;25571;47.876;10.642;2023-02-24T04:49:43;4.97;;;2.17;;
39898;SDS011;25571;47.876;10.642;2023-02-24T04:52:09;2.63;;;2.00;;
39898;SDS011;25571;47.876;10.642;2023-02-24T04:54:35;3.30;;;2.25;;
39898;SDS011;25571;47.876;10.642;2023-02-24T04:57:01;3.70;;;2.45;;
39898;SDS011;25571;47.876;10.642;2023-02-24T04:59:29;3.80;;;2.35;;
39898;SDS011;25571;47.876;10.642;2023-02-24T05:01:55;3.65;;;2.05;;
39898;SDS011;25571;47.876;10.642;2023-02-24T05:04:25;3.45;;;2.05;;
39898;SDS011;25571;47.876;10.642;2023-02-24T05:06:53;4.32;;;2.42;;
39898;SDS011;25571;47.876;10.642;2023-02-24T05:09:21;3.78;;;2.28;;
39898;SDS011;25571;47.876;10.642;2023-02-24T05:11:48;3.90;;;1.95;;
39898;SDS011;25571;47.876;10.642;2023-02-24T05:14:16;4.93;;;2.30;;
39898;SDS011;25571;47.876;10.642;2023-02-24T05:16:45;5.30;;;2.15;;
39898;SDS011;25571;47.876;10.642;2023-02-24T05:19:13;3.58;;;2.00;;
39898;SDS011;25571;47.876;10.642;2023-02-24T05:21:59;5.35;;;2.70;;
39898;SDS011;25571;47.876;10.642;2023-02-24T05:24:27;4.50;;;2.10;;
39898;SDS011;25571;47.876;10.642;2023-02-24T05:26:54;5.40;;;2.60;;
39898;SDS011;25571;47.876;10.642;2023-02-24T05:29:24;6.57;;;2.78;;
39898;SDS011;25571;47.876;10.642;2023-02-24T05:31:54;3.72;;;2.15;;
39898;SDS011;25571;47.876;10.642;2023-02-24T05:34:24;7.32;;;2.50;;
39898;SDS011;25571;47.876;10.642;2023-02-24T05:36:57;3.70;;;2.45;;
39898;SDS011;25571;47.876;10.642;2023-02-24T05:39:25;4.07;;;2.33;;
39898;SDS011;25571;47.876;10.642;2023-02-24T05:41:51;3.15;;;2.10;;
39898;SDS011;25571;47.876;10.642;2023-02-24T05:44:19;4.72;;;1.83;;
39898;SDS011;25571;47.876;10.642;2023-02-24T05:46:51;4.75;;;2.35;;
39898;SDS011;25571;47.876;10.642;2023-02-24T05:49:22;4.55;;;2.47;;
39898;SDS011;25571;47.876;10.642;2023-02-24T05:51:55;4.72;;;2.35;;
39898;SDS011;25571;47.876;10.642;2023-02-24T05:54:26;4.03;;;2.35;;
39898;SDS011;25571;47.876;10.642;2023-02-24T05:57:00;2.97;;;1.98;;
39898;SDS011;25571;47.876;10.642;2023-02-24T05:59:27;3.75;;;1.95;;
39898;SDS011;25571;47.876;10.642;2023-02-24T06:02:00;4.05;;;1.80;;
39898;SDS011;25571;47.876;10.642;2023-02-24T06:04:33;4.05;;;2.42;;
39898;SDS011;25571;47.876;10.642;2023-02-24T06:07:16;4.43;;;1.98;;
39898;SDS011;25571;47.876;10.642;2023-02-24T06:09:45;5.15;;;1.95;;
39898;SDS011;25571;47.876;10.642;2023-02-24T06:12:13;4.80;;;1.90;;
39898;SDS011;25571;47.876;10.642;2023-02-24T06:14:41;5.35;;;2.20;;
39898;SDS011;25571;47.876;10.642;2023-02-24T06:17:07;3.38;;;1.90;;
39898;SDS011;25571;47.876;10.642;2023-02-24T06:19:33;5.55;;;2.65;;
39898;SDS011;25571;47.876;10.642;2023-02-24T06:21:59;4.43;;;2.80;;
39898;SDS011;25571;47.876;10.642;2023-02-24T06:24:30;6.00;;;1.85;;
39898;SDS011;25571;47.876;10.642;2023-02-24T06:26:57;3.65;;;2.30;;
39898;SDS011;25571;47.876;10.642;2023-02-24T06:29:27;3.20;;;1.98;;
39898;SDS011;25571;47.876;10.642;2023-02-24T06:31:56;4.32;;;2.10;;
39898;SDS011;25571;47.876;10.642;2023-02-24T06:34:22;4.47;;;2.35;;
39898;SDS011;25571;47.876;10.642;2023-02-24T06:36:49;5.63;;;2.50;;
39898;SDS011;25571;47.876;10.642;2023-02-24T06:39:16;5.75;;;2.40;;
39898;SDS011;25571;47.876;10.642;2023-02-24T06:41:42;4.00;;;2.22;;
39898;SDS011;25571;47.876;10.642;2023-02-24T06:44:08;4.72;;;2.38;;
39898;SDS011;25571;47.876;10.642;2023-02-24T06:46:34;3.55;;;2.42;;
39898;SDS011;25571;47.876;10.642;2023-02-24T06:49:00;4.95;;;2.58;;
39898;SDS011;25571;47.876;10.642;2023-02-24T06:51:26;5.53;;;2.42;;
39898;SDS011;25571;47.876;10.642;2023-02-24T06:53:54;3.72;;;2.60;;
39898;SDS011;25571;47.876;10.642;2023-02-24T06:56:21;5.95;;;2.53;;
39898;SDS011;25571;47.876;10.642;2023-02-24T06:58:47;5.32;;;2.80;;
39898;SDS011;25571;47.876;10.642;2023-02-24T07:01:15;5.57;;;2.87;;
39898;SDS011;25571;47.876;10.642;2023-02-24T07:03:49;6.90;;;4.10;;
39898;SDS011;25571;47.876;10.642;2023-02-24T07:06:32;6.03;;;3.25;;
39898;SDS011;25571;47.876;10.642;2023-02-24T07:08:59;4.90;;;2.90;;
39898;SDS011;25571;47.876;10.642;2023-02-24T07:11:29;7.32;;;4.78;;
39898;SDS011;25571;47.876;10.642;2023-02-24T07:13:55;4.82;;;3.08;;
39898;SDS011;25571;47.876;10.642;2023-02-24T07:16:22;5.07;;;3.10;;
39898;SDS011;25571;47.876;10.642;2023-02-24T07:18:59;4.75;;;2.38;;
39898;SDS011;25571;47.876;10.642;2023-02-24T07:21:27;6.35;;;2.45;;
39898;SDS011;25571;47.876;10.642;2023-02-24T07:24:04;5.45;;;3.45;;
39898;SDS011;25571;47.876;10.642;2023-02-24T07:26:30;5.47;;;2.58;;
39898;SDS011;25571;47.876;10.642;2023-02-24T07:28:57;5.25;;;2.75;;
39898;SDS011;25571;47.876;10.642;2023-02-24T07:31:28;4.93;;;3.30;;
39898;SDS011;25571;47.876;10.642;2023-02-24T07:33:57;5.88;;;3.20;;
39898;SDS011;25571;47.876;10.642;2023-02-24T07:36:25;7.67;;;3.60;;
39898;SDS011;25571;47.876;10.642;2023-02-24T07:38:54;6.70;;;3.65;;
39898;SDS011;25571;47.876;10.642;2023-02-24T07:41:25;4.20;;;2.97;;
39898;SDS011;25571;47.876;10.642;2023-02-24T07:43:53;4.13;;;2.75;;
39898;SDS011;25571;47.876;10.642;2023-02-24T07:46:21;5.72;;;2.63;;
39898;SDS011;25571;47.876;10.642;2023-02-24T07:48:49;5.15;;;2.38;;
39898;SDS011;25571;47.876;10.642;2023-02-24T07:51:16;3.35;;;2.05;;
39898;SDS011;25571;47.876;10.642;2023-02-24T07:53:47;3.45;;;2.20;;
39898;SDS011;25571;47.876;10.642;2023-02-24T07:56:14;3.75;;;2.50;;
39898;SDS011;25571;47.876;10.642;2023-02-24T07:58:44;3.70;;;2.10;;
39898;SDS011;25571;47.876;10.642;2023-02-24T08:01:15;4.78;;;2.53;;
39898;SDS011;25571;47.876;10.642;2023-02-24T08:03:56;3.65;;;2.50;;
39898;SDS011;25571;47.876;10.642;2023-02-24T08:06:29;5.50;;;2.33;;
39898;SDS011;25571;47.876;10.642;2023-02-24T08:09:06;3.60;;;2.10;;
39898;SDS011;25571;47.876;10.642;2023-02-24T08:11:48;3.53;;;2.35;;
39898;SDS011;25571;47.876;10.642;2023-02-24T08:14:22;4.95;;;2.30;;
39898;SDS011;25571;47.876;10.642;2023-02-24T08:16:51;4.53;;;2.65;;
39898;SDS011;25571;47.876;10.642;2023-02-24T08:19:23;4.30;;;2.33;;
39898;SDS011;25571;47.876;10.642;2023-02-24T08:21:53;4.57;;;2.63;;
39898;SDS011;25571;47.876;10.642;2023-02-24T08:24:23;5.28;;;3.10;;
39898;SDS011;25571;47.876;10.642;2023-02-24T08:26:54;4.18;;;2.15;;
39898;SDS011;25571;47.876;10.642;2023-02-24T08:29:33;4.13;;;2.75;;
39898;SDS011;25571;47.876;10.642;2023-02-24T08:37:32;4.03;;;2.58;;
39898;SDS011;25571;47.876;10.642;2023-02-24T08:40:08;3.75;;;2.38;;
39898;SDS011;25571;47.876;10.642;2023-02-24T08:42:55;3.83;;;2.17;;
39898;SDS011;25571;47.876;10.642;2023-02-24T08:45:26;4.20;;;2.33;;
39898;SDS011;25571;47.876;10.642;2023-02-24T08:47:57;4.80;;;2.83;;
39898;SDS011;25571;47.876;10.642;2023-02-24T08:50:42;6.13;;;3.00;;
39898;SDS011;25571;47.876;10.642;2023-02-24T08:55:43;4.50;;;2.30;;
39898;SDS011;25571;47.876;10.642;2023-02-24T08:58:09;7.10;;;2.20;;
39898;SDS011;25571;47.876;10.642;2023-02-24T09:00:42;4.63;;;2.50;;
39898;SDS011;25571;47.876;10.642;2023-02-24T09:03:14;5.15;;;2.55;;
39898;SDS011;25571;47.876;10.642;2023-02-24T09:05:55;7.47;;;3.67;;
39898;SDS011;25571;47.876;10.642;2023-02-24T09:08:33;5.53;;;2.80;;
39898;SDS011;25571;47.876;10.642;2023-02-24T09:11:04;7.57;;;3.15;;
39898;SDS011;25571;47.876;10.642;2023-02-24T09:13:36;4.00;;;2.50;;
39898;SDS011;25571;47.876;10.642;2023-02-24T09:16:15;4.28;;;2.38;;
39898;SDS011;25571;47.876;10.642;2023-02-24T09:18:47;4.60;;;2.60;;
39898;SDS011;25571;47.876;10.642;2023-02-24T09:21:33;3.63;;;2.40;;
39898;SDS011;25571;47.876;10.642;2023-02-24T09:24:11;5.95;;;2.95;;
39898;SDS011;25571;47.876;10.642;2023-02-24T09:26:37;4.50;;;2.58;;
39898;SDS011;25571;47.876;10.642;2023-02-24T09:29:09;4.97;;;2.47;;
39898;SDS011;25571;47.876;10.642;2023-02-24T09:31:57;5.40;;;2.45;;
39898;SDS011;25571;47.876;10.642;2023-02-24T09:34:33;4.50;;;2.45;;
39898;SDS011;25571;47.876;10.642;2023-02-24T09:37:08;5.55;;;2.13;;
39898;SDS011;25571;47.876;10.642;2023-02-24T09:39:49;6.45;;;2.75;;
39898;SDS011;25571;47.876;10.642;2023-02-24T09:42:23;4.13;;;2.60;;
39898;SDS011;25571;47.876;10.642;2023-02-24T09:44:59;3.28;;;2.67;;
39898;SDS011;25571;47.876;10.642;2023-02-24T09:52:44;6.72;;;2.75;;
39898;SDS011;25571;47.876;10.642;2023-02-24T09:58:30;7.57;;;3.28;;
39898;SDS011;25571;47.876;10.642;2023-02-24T10:06:58;5.85;;;3.42;;
39898;SDS011;25571;47.876;10.642;2023-02-24T10:09:40;6.63;;;3.22;;
39898;SDS011;25571;47.876;10.642;2023-02-24T10:12:40;6.32;;;3.60;;
39898;SDS011;25571;47.876;10.642;2023-02-24T10:15:11;6.10;;;3.13;;
39898;SDS011;25571;47.876;10.642;2023-02-24T10:20:20;6.05;;;3.70;;
39898;SDS011;25571;47.876;10.642;2023-02-24T10:23:25;5.30;;;3.33;;
39898;SDS011;25571;47.876;10.642;2023-02-24T10:26:25;6.45;;;3.13;;
39898;SDS011;25571;47.876;10.642;2023-02-24T10:28:58;4.10;;;2.72;;
39898;SDS011;25571;47.876;10.642;2023-02-24T10:31:45;4.55;;;2.78;;
39898;SDS011;25571;47.876;10.642;2023-02-24T10:34:15;9.82;;;4.28;;
39898;SDS011;25571;47.876;10.642;2023-02-24T10:36:50;7.03;;;3.92;;
39898;SDS011;25571;47.876;10.642;2023-02-24T10:39:18;6.35;;;3.83;;
39898;SDS011;25571;47.876;10.642;2023-02-24T10:44:39;4.68;;;3.22;;
39898;SDS011;25571;47.876;10.642;2023-02-24T10:47:16;6.90;;;4.07;;
39898;SDS011;25571;47.876;10.642;2023-02-24T10:49:48;8.80;;;4.30;;
39898;SDS011;25571;47.876;10.642;2023-02-24T10:55:39;6.22;;;3.13;;
39898;SDS011;25571;47.876;10.642;2023-02-24T11:00:53;6.57;;;3.13;;
39898;SDS011;25571;47.876;10.642;2023-02-24T11:03:49;6.30;;;3.40;;
39898;SDS011;25571;47.876;10.642;2023-02-24T11:06:47;4.70;;;2.88;;
39898;SDS011;25571;47.876;10.642;2023-02-24T11:09:22;4.15;;;2.50;;
39898;SDS011;25571;47.876;10.642;2023-02-24T11:11:52;7.07;;;2.90;;
39898;SDS011;25571;47.876;10.642;2023-02-24T11:14:51;7.47;;;3.47;;
39898;SDS011;25571;47.876;10.642;2023-02-24T11:17:44;5.57;;;3.22;;
39898;SDS011;25571;47.876;10.642;2023-02-24T11:23:02;7.25;;;3.55;;
39898;SDS011;25571;47.876;10.642;2023-02-24T11:25:35;6.70;;;2.92;;
39898;SDS011;25571;47.876;10.642;2023-02-24T11:28:05;6.45;;;3.10;;
39898;SDS011;25571;47.876;10.642;2023-02-24T11:33:39;6.90;;;3.25;;
39898;SDS011;25571;47.876;10.642;2023-02-24T11:36:19;6.85;;;3.65;;
39898;SDS011;25571;47.876;10.642;2023-02-24T11:41:37;9.18;;;3.80;;
39898;SDS011;25571;47.876;10.642;2023-02-24T11:44:12;7.75;;;3.25;;
39898;SDS011;25571;47.876;10.642;2023-02-24T11:46:46;6.10;;;3.13;;
39898;SDS011;25571;47.876;10.642;2023-02-24T11:49:59;6.15;;;3.67;;
39898;SDS011;25571;47.876;10.642;2023-02-24T11:52:08;8.05;;;3.40;;
39898;SDS011;25571;47.876;10.642;2023-02-24T11:55:03;7.25;;;3.60;;
39898;SDS011;25571;47.876;10.642;2023-02-24T11:57:41;4.57;;;3.27;;
39898;SDS011;25571;47.876;10.642;2023-02-24T12:02:46;10.85;;;3.80;;
39898;SDS011;25571;47.876;10.642;2023-02-24T12:05:51;9.05;;;4.03;;
39898;SDS011;25571;47.876;10.642;2023-02-24T12:08:17;11.95;;;3.58;;
39898;SDS011;25571;47.876;10.642;2023-02-24T12:14:01;8.02;;;3.55;;
39898;SDS011;25571;47.876;10.642;2023-02-24T12:16:34;5.68;;;3.92;;
39898;SDS011;25571;47.876;10.642;2023-02-24T12:19:12;7.55;;;4.00;;
39898;SDS011;25571;47.876;10.642;2023-02-24T12:21:44;7.22;;;3.90;;
39898;SDS011;25571;47.876;10.642;2023-02-24T12:24:16;10.55;;;4.13;;
39898;SDS011;25571;47.876;10.642;2023-02-24T12:35:14;6.70;;;3.83;;
39898;SDS011;25571;47.876;10.642;2023-02-24T12:37:58;7.30;;;4.07;;
39898;SDS011;25571;47.876;10.642;2023-02-24T12:41:06;5.47;;;3.20;;
39898;SDS011;25571;47.876;10.642;2023-02-24T12:43:45;6.38;;;3.75;;
39898;SDS011;25571;47.876;10.642;2023-02-24T12:46:30;8.18;;;4.38;;
39898;SDS011;25571;47.876;10.642;2023-02-24T12:54:52;9.48;;;3.75;;
39898;SDS011;25571;47.876;10.642;2023-02-24T12:57:32;10.35;;;4.65;;
39898;SDS011;25571;47.876;10.642;2023-02-24T13:02:50;8.80;;;3.80;;
39898;SDS011;25571;47.876;10.642;2023-02-24T13:05:28;10.77;;;5.38;;
39898;SDS011;25571;47.876;10.642;2023-02-24T13:13:42;10.45;;;5.50;;
39898;SDS011;25571;47.876;10.642;2023-02-24T13:16:14;9.05;;;4.53;;
39898;SDS011;25571;47.876;10.642;2023-02-24T13:18:51;9.45;;;4.45;;
39898;SDS011;25571;47.876;10.642;2023-02-24T13:21:18;7.65;;;3.83;;
39898;SDS011;25571;47.876;10.642;2023-02-24T13:23:59;7.72;;;4.35;;
39898;SDS011;25571;47.876;10.642;2023-02-24T13:26:27;10.27;;;4.55;;
39898;SDS011;25571;47.876;10.642;2023-02-24T13:29:02;7.25;;;3.90;;
39898;SDS011;25571;47.876;10.642;2023-02-24T13:31:42;10.30;;;3.83;;
39898;SDS011;25571;47.876;10.642;2023-02-24T13:36:54;9.15;;;3.95;;
39898;SDS011;25571;47.876;10.642;2023-02-24T13:39:30;10.32;;;3.95;;
39898;SDS011;25571;47.876;10.642;2023-02-24T13:42:02;5.05;;;3.45;;
39898;SDS011;25571;47.876;10.642;2023-02-24T13:53:52;8.93;;;4.13;;
39898;SDS011;25571;47.876;10.642;2023-02-24T13:56:01;6.88;;;3.35;;
39898;SDS011;25571;47.876;10.642;2023-02-24T14:01:27;8.00;;;4.03;;
39898;SDS011;25571;47.876;10.642;2023-02-24T14:06:44;10.05;;;3.75;;
39898;SDS011;25571;47.876;10.642;2023-02-24T14:09:13;4.70;;;3.30;;
39898;SDS011;25571;47.876;10.642;2023-02-24T14:11:42;7.70;;;3.70;;
39898;SDS011;25571;47.876;10.642;2023-02-24T14:14:12;5.75;;;3.13;;
39898;SDS011;25571;47.876;10.642;2023-02-24T14:16:42;8.90;;;3.33;;
39898;SDS011;25571;47.876;10.642;2023-02-24T14:19:12;5.68;;;3.20;;
39898;SDS011;25571;47.876;10.642;2023-02-24T14:21:54;7.28;;;3.60;;
39898;SDS011;25571;47.876;10.642;2023-02-24T14:24:22;8.88;;;4.00;;
39898;SDS011;25571;47.876;10.642;2023-02-24T14:26:49;10.23;;;3.90;;
39898;SDS011;25571;47.876;10.642;2023-02-24T14:32:03;9.93;;;3.60;;
39898;SDS011;25571;47.876;10.642;2023-02-24T14:34:29;8.93;;;4.22;;
39898;SDS011;25571;47.876;10.642;2023-02-24T14:36:58;9.75;;;4.50;;
39898;SDS011;25571;47.876;10.642;2023-02-24T14:39:26;10.52;;;4.30;;
39898;SDS011;25571;47.876;10.642;2023-02-24T14:44:54;10.00;;;3.78;;
39898;SDS011;25571;47.876;10.642;2023-02-24T14:47:22;8.65;;;3.72;;
39898;SDS011;25571;47.876;10.642;2023-02-24T14:49:52;8.77;;;4.00;;
39898;SDS011;25571;47.876;10.642;2023-02-24T14:52:25;7.15;;;3.60;;
39898;SDS011;25571;47.876;10.642;2023-02-24T14:55:06;7.18;;;4.22;;
39898;SDS011;25571;47.876;10.642;2023-02-24T14:57:44;7.28;;;3.78;;
39898;SDS011;25571;47.876;10.642;2023-02-24T15:00:21;7.45;;;3.78;;
39898;SDS011;25571;47.876;10.642;2023-02-24T15:02:51;6.97;;;3.70;;
39898;SDS011;25571;47.876;10.642;2023-02-24T15:05:21;8.13;;;3.90;;
39898;SDS011;25571;47.876;10.642;2023-02-24T15:07:47;10.02;;;3.92;;
39898;SDS011;25571;47.876;10.642;2023-02-24T15:10:23;6.72;;;3.80;;
39898;SDS011;25571;47.876;10.642;2023-02-24T15:12:52;10.65;;;4.18;;
39898;SDS011;25571;47.876;10.642;2023-02-24T15:15:21;10.82;;;4.32;;
39898;SDS011;25571;47.876;10.642;2023-02-24T15:18:01;9.25;;;4.22;;
39898;SDS011;25571;47.876;10.642;2023-02-24T15:20:34;9.88;;;4.25;;
39898;SDS011;25571;47.876;10.642;2023-02-24T15:23:01;10.43;;;4.63;;
39898;SDS011;25571;47.876;10.642;2023-02-24T15:25:29;9.88;;;3.60;;
39898;SDS011;25571;47.876;10.642;2023-02-24T15:28:19;7.85;;;3.95;;
39898;SDS011;25571;47.876;10.642;2023-02-24T15:34:12;5.85;;;3.17;;
39898;SDS011;25571;47.876;10.642;2023-02-24T15:36:34;10.23;;;3.63;;
39898;SDS011;25571;47.876;10.642;2023-02-24T15:39:07;7.95;;;3.22;;
39898;SDS011;25571;47.876;10.642;2023-02-24T15:41:41;9.02;;;3.45;;
39898;SDS011;25571;47.876;10.642;2023-02-24T15:44:23;6.15;;;3.65;;
39898;SDS011;25571;47.876;10.642;2023-02-24T15:46:49;8.75;;;3.95;;
39898;SDS011;25571;47.876;10.642;2023-02-24T15:49:14;8.38;;;4.25;;
39898;SDS011;25571;47.876;10.642;2023-02-24T15:51:40;10.55;;;4.50;;
39898;SDS011;25571;47.876;10.642;2023-02-24T15:56:59;10.40;;;4.45;;
39898;SDS011;25571;47.876;10.642;2023-02-24T15:59:26;10.00;;;5.00;;
39898;SDS011;25571;47.876;10.642;2023-02-24T16:01:52;11.88;;;5.18;;
39898;SDS011;25571;47.876;10.642;2023-02-24T16:04:19;6.90;;;4.55;;
39898;SDS011;25571;47.876;10.642;2023-02-24T16:06:46;8.27;;;4.40;;
39898;SDS011;25571;47.876;10.642;2023-02-24T16:09:18;9.90;;;4.32;;
39898;SDS011;25571;47.876;10.642;2023-02-24T16:11:56;6.30;;;3.92;;
39898;SDS011;25571;47.876;10.642;2023-02-24T16:14:22;8.73;;;3.80;;
39898;SDS011;25571;47.876;10.642;2023-02-24T16:16:48;9.70;;;4.10;;
39898;SDS011;25571;47.876;10.642;2023-02-24T16:19:14;9.35;;;4.30;;
39898;SDS011;25571;47.876;10.642;2023-02-24T16:21:40;7.93;;;3.80;;
39898;SDS011;25571;47.876;10.642;2023-02-24T16:24:06;9.32;;;4.25;;
39898;SDS011;25571;47.876;10.642;2023-02-24T16:26:35;7.05;;;4.38;;
39898;SDS011;25571;47.876;10.642;2023-02-24T16:29:04;10.13;;;4.18;;
39898;SDS011;25571;47.876;10.642;2023-02-24T16:31:36;9.30;;;4.20;;
39898;SDS011;25571;47.876;10.642;2023-02-24T16:34:02;6.97;;;4.13;;
39898;SDS011;25571;47.876;10.642;2023-02-24T16:36:29;9.40;;;5.28;;
39898;SDS011;25571;47.876;10.642;2023-02-24T16:38:55;8.38;;;4.78;;
39898;SDS011;25571;47.876;10.642;2023-02-24T16:41:21;9.07;;;5.03;;
39898;SDS011;25571;47.876;10.642;2023-02-24T16:43:47;7.25;;;4.70;;
39898;SDS011;25571;47.876;10.642;2023-02-24T16:46:18;8.05;;;4.68;;
39898;SDS011;25571;47.876;10.642;2023-02-24T16:48:46;7.60;;;4.90;;
39898;SDS011;25571;47.876;10.642;2023-02-24T16:51:14;8.93;;;4.90;;
39898;SDS011;25571;47.876;10.642;2023-02-24T16:53:40;9.32;;;5.65;;
39898;SDS011;25571;47.876;10.642;2023-02-24T16:56:07;10.43;;;4.80;;
39898;SDS011;25571;47.876;10.642;2023-02-24T16:58:33;9.57;;;6.82;;
39898;SDS011;25571;47.876;10.642;2023-02-24T17:00:59;11.90;;;6.38;;
39898;SDS011;25571;47.876;10.642;2023-02-24T17:06:00;16.92;;;9.00;;
39898;SDS011;25571;47.876;10.642;2023-02-24T17:08:26;13.70;;;7.35;;
39898;SDS011;25571;47.876;10.642;2023-02-24T17:10:52;11.80;;;6.50;;
39898;SDS011;25571;47.876;10.642;2023-02-24T17:13:18;15.27;;;6.93;;
39898;SDS011;25571;47.876;10.642;2023-02-24T17:15:46;11.73;;;4.80;;
39898;SDS011;25571;47.876;10.642;2023-02-24T17:18:13;14.85;;;6.03;;
39898;SDS011;25571;47.876;10.642;2023-02-24T17:20:39;14.73;;;4.85;;
39898;SDS011;25571;47.876;10.642;2023-02-24T17:23:06;8.40;;;4.22;;
39898;SDS011;25571;47.876;10.642;2023-02-24T17:25:31;12.20;;;4.38;;
39898;SDS011;25571;47.876;10.642;2023-02-24T17:27:57;11.93;;;4.00;;
39898;SDS011;25571;47.876;10.642;2023-02-24T17:30:25;11.23;;;3.25;;
39898;SDS011;25571;47.876;10.642;2023-02-24T17:32:53;11.73;;;3.55;;
39898;SDS011;25571;47.876;10.642;2023-02-24T17:35:19;15.25;;;4.15;;
39898;SDS011;25571;47.876;10.642;2023-02-24T17:37:45;11.55;;;3.42;;